sensor_id;sensor_type;location;lat;lon;timestamp;P1;durP1;ratioP1;P2;durP2;ratioP2
52734;SDS011;38631;47.572;10.704;2023-12-20T00:01:37;5.97;;;3.72;;
52734;SDS011;38631;47.572;10.704;2023-12-20T00:04:03;5.80;;;3.70;;
52734;SDS011;38631;47.572;10.704;2023-12-20T00:06:29;6.05;;;3.75;;
52734;SDS011;38631;47.572;10.704;2023-12-20T00:08:55;6.60;;;4.13;;
52734;SDS011;38631;47.572;10.704;2023-12-20T00:11:20;6.15;;;4.22;;
52734;SDS011;38631;47.572;10.704;2023-12-20T00:13:45;8.27;;;4.28;;
52734;SDS011;38631;47.572;10.704;2023-12-20T00:16:11;9.10;;;4.65;;
52734;SDS011;38631;47.572;10.704;2023-12-20T00:18:36;6.63;;;3.70;;
52734;SDS011;38631;47.572;10.704;2023-12-20T00:21:02;7.10;;;4.45;;
52734;SDS011;38631;47.572;10.704;2023-12-20T00:23:27;6.88;;;4.53;;
52734;SDS011;38631;47.572;10.704;2023-12-20T00:25:52;6.85;;;4.45;;
52734;SDS011;38631;47.572;10.704;2023-12-20T00:28:18;8.25;;;4.45;;
52734;SDS011;38631;47.572;10.704;2023-12-20T00:30:43;6.72;;;4.18;;
52734;SDS011;38631;47.572;10.704;2023-12-20T00:33:09;7.70;;;4.28;;
52734;SDS011;38631;47.572;10.704;2023-12-20T00:35:34;3.85;;;2.67;;
52734;SDS011;38631;47.572;10.704;2023-12-20T00:37:59;4.32;;;2.95;;
52734;SDS011;38631;47.572;10.704;2023-12-20T00:40:25;4.22;;;2.72;;
52734;SDS011;38631;47.572;10.704;2023-12-20T00:42:50;4.88;;;3.15;;
52734;SDS011;38631;47.572;10.704;2023-12-20T00:45:16;5.35;;;3.35;;
52734;SDS011;38631;47.572;10.704;2023-12-20T00:47:41;5.95;;;3.40;;
52734;SDS011;38631;47.572;10.704;2023-12-20T00:50:07;4.70;;;3.00;;
52734;SDS011;38631;47.572;10.704;2023-12-20T00:52:32;6.60;;;3.40;;
52734;SDS011;38631;47.572;10.704;2023-12-20T00:54:58;5.43;;;3.30;;
52734;SDS011;38631;47.572;10.704;2023-12-20T00:57:23;5.28;;;3.30;;
52734;SDS011;38631;47.572;10.704;2023-12-20T00:59:48;6.18;;;2.65;;
52734;SDS011;38631;47.572;10.704;2023-12-20T01:02:14;5.00;;;3.47;;
52734;SDS011;38631;47.572;10.704;2023-12-20T01:04:39;4.20;;;3.05;;
52734;SDS011;38631;47.572;10.704;2023-12-20T01:07:05;4.57;;;3.00;;
52734;SDS011;38631;47.572;10.704;2023-12-20T01:09:30;5.72;;;3.60;;
52734;SDS011;38631;47.572;10.704;2023-12-20T01:11:55;4.30;;;3.15;;
52734;SDS011;38631;47.572;10.704;2023-12-20T01:14:21;7.30;;;3.42;;
52734;SDS011;38631;47.572;10.704;2023-12-20T01:16:46;4.80;;;3.30;;
52734;SDS011;38631;47.572;10.704;2023-12-20T01:19:12;5.57;;;3.55;;
52734;SDS011;38631;47.572;10.704;2023-12-20T01:21:39;6.55;;;2.95;;
52734;SDS011;38631;47.572;10.704;2023-12-20T01:24:04;5.75;;;3.38;;
52734;SDS011;38631;47.572;10.704;2023-12-20T01:26:30;4.45;;;3.42;;
52734;SDS011;38631;47.572;10.704;2023-12-20T01:28:55;6.50;;;3.72;;
52734;SDS011;38631;47.572;10.704;2023-12-20T01:31:20;4.82;;;3.35;;
52734;SDS011;38631;47.572;10.704;2023-12-20T01:33:46;8.00;;;3.95;;
52734;SDS011;38631;47.572;10.704;2023-12-20T01:36:11;13.43;;;7.55;;
52734;SDS011;38631;47.572;10.704;2023-12-20T01:38:37;10.90;;;5.68;;
52734;SDS011;38631;47.572;10.704;2023-12-20T01:41:02;7.68;;;4.53;;
52734;SDS011;38631;47.572;10.704;2023-12-20T01:43:28;8.52;;;4.78;;
52734;SDS011;38631;47.572;10.704;2023-12-20T01:45:54;7.25;;;4.93;;
52734;SDS011;38631;47.572;10.704;2023-12-20T01:48:21;6.75;;;4.30;;
52734;SDS011;38631;47.572;10.704;2023-12-20T01:50:46;5.85;;;4.10;;
52734;SDS011;38631;47.572;10.704;2023-12-20T01:53:12;8.30;;;5.00;;
52734;SDS011;38631;47.572;10.704;2023-12-20T01:55:39;5.72;;;3.80;;
52734;SDS011;38631;47.572;10.704;2023-12-20T01:58:08;6.82;;;3.67;;
52734;SDS011;38631;47.572;10.704;2023-12-20T02:00:35;6.05;;;3.72;;
52734;SDS011;38631;47.572;10.704;2023-12-20T02:03:02;6.35;;;3.55;;
52734;SDS011;38631;47.572;10.704;2023-12-20T02:05:28;7.20;;;3.58;;
52734;SDS011;38631;47.572;10.704;2023-12-20T02:07:55;6.40;;;3.78;;
52734;SDS011;38631;47.572;10.704;2023-12-20T02:10:20;6.60;;;3.90;;
52734;SDS011;38631;47.572;10.704;2023-12-20T02:12:46;8.77;;;3.42;;
52734;SDS011;38631;47.572;10.704;2023-12-20T02:15:11;6.10;;;3.33;;
52734;SDS011;38631;47.572;10.704;2023-12-20T02:17:37;5.55;;;3.70;;
52734;SDS011;38631;47.572;10.704;2023-12-20T02:20:04;4.97;;;3.33;;
52734;SDS011;38631;47.572;10.704;2023-12-20T02:22:31;7.05;;;3.80;;
52734;SDS011;38631;47.572;10.704;2023-12-20T02:24:56;5.38;;;3.80;;
52734;SDS011;38631;47.572;10.704;2023-12-20T02:27:22;4.90;;;3.20;;
52734;SDS011;38631;47.572;10.704;2023-12-20T02:29:48;5.03;;;2.83;;
52734;SDS011;38631;47.572;10.704;2023-12-20T02:32:14;4.15;;;2.90;;
52734;SDS011;38631;47.572;10.704;2023-12-20T02:34:40;4.85;;;2.70;;
52734;SDS011;38631;47.572;10.704;2023-12-20T02:37:06;4.38;;;3.08;;
52734;SDS011;38631;47.572;10.704;2023-12-20T02:39:31;4.75;;;2.92;;
52734;SDS011;38631;47.572;10.704;2023-12-20T02:41:56;4.50;;;2.95;;
52734;SDS011;38631;47.572;10.704;2023-12-20T02:44:22;5.07;;;2.78;;
52734;SDS011;38631;47.572;10.704;2023-12-20T02:46:47;4.90;;;3.67;;
52734;SDS011;38631;47.572;10.704;2023-12-20T02:49:12;4.28;;;2.88;;
52734;SDS011;38631;47.572;10.704;2023-12-20T02:51:38;4.68;;;3.13;;
52734;SDS011;38631;47.572;10.704;2023-12-20T02:54:03;4.60;;;2.85;;
52734;SDS011;38631;47.572;10.704;2023-12-20T02:56:29;5.75;;;3.55;;
52734;SDS011;38631;47.572;10.704;2023-12-20T02:58:54;5.43;;;3.33;;
52734;SDS011;38631;47.572;10.704;2023-12-20T03:01:20;4.43;;;2.92;;
52734;SDS011;38631;47.572;10.704;2023-12-20T03:03:45;4.88;;;2.88;;
52734;SDS011;38631;47.572;10.704;2023-12-20T03:06:10;4.97;;;2.95;;
52734;SDS011;38631;47.572;10.704;2023-12-20T03:08:36;4.65;;;2.70;;
52734;SDS011;38631;47.572;10.704;2023-12-20T03:11:02;3.50;;;2.45;;
52734;SDS011;38631;47.572;10.704;2023-12-20T03:13:27;4.22;;;2.55;;
52734;SDS011;38631;47.572;10.704;2023-12-20T03:15:52;4.18;;;2.70;;
52734;SDS011;38631;47.572;10.704;2023-12-20T03:18:18;4.00;;;2.60;;
52734;SDS011;38631;47.572;10.704;2023-12-20T03:20:43;3.78;;;2.70;;
52734;SDS011;38631;47.572;10.704;2023-12-20T03:23:09;5.05;;;2.65;;
52734;SDS011;38631;47.572;10.704;2023-12-20T03:25:34;4.68;;;2.55;;
52734;SDS011;38631;47.572;10.704;2023-12-20T03:27:59;4.18;;;2.83;;
52734;SDS011;38631;47.572;10.704;2023-12-20T03:30:25;3.80;;;2.20;;
52734;SDS011;38631;47.572;10.704;2023-12-20T03:32:50;3.70;;;2.72;;
52734;SDS011;38631;47.572;10.704;2023-12-20T03:35:15;3.30;;;2.70;;
52734;SDS011;38631;47.572;10.704;2023-12-20T03:37:41;4.43;;;3.00;;
52734;SDS011;38631;47.572;10.704;2023-12-20T03:40:06;5.00;;;3.50;;
52734;SDS011;38631;47.572;10.704;2023-12-20T03:42:32;4.75;;;2.65;;
52734;SDS011;38631;47.572;10.704;2023-12-20T03:44:57;4.75;;;2.80;;
52734;SDS011;38631;47.572;10.704;2023-12-20T03:47:22;4.72;;;2.80;;
52734;SDS011;38631;47.572;10.704;2023-12-20T03:49:48;4.28;;;2.63;;
52734;SDS011;38631;47.572;10.704;2023-12-20T03:52:13;4.10;;;2.88;;
52734;SDS011;38631;47.572;10.704;2023-12-20T03:54:39;3.80;;;2.50;;
52734;SDS011;38631;47.572;10.704;2023-12-20T03:57:06;3.58;;;2.45;;
52734;SDS011;38631;47.572;10.704;2023-12-20T03:59:36;3.85;;;2.50;;
52734;SDS011;38631;47.572;10.704;2023-12-20T04:02:02;4.35;;;2.50;;
52734;SDS011;38631;47.572;10.704;2023-12-20T04:04:28;4.00;;;2.53;;
52734;SDS011;38631;47.572;10.704;2023-12-20T04:06:53;6.85;;;2.75;;
52734;SDS011;38631;47.572;10.704;2023-12-20T04:09:18;4.20;;;2.53;;
52734;SDS011;38631;47.572;10.704;2023-12-20T04:11:44;6.15;;;4.05;;
52734;SDS011;38631;47.572;10.704;2023-12-20T04:14:09;5.72;;;2.30;;
52734;SDS011;38631;47.572;10.704;2023-12-20T04:16:35;2.92;;;2.05;;
52734;SDS011;38631;47.572;10.704;2023-12-20T04:19:00;4.15;;;1.90;;
52734;SDS011;38631;47.572;10.704;2023-12-20T04:21:26;3.70;;;2.10;;
52734;SDS011;38631;47.572;10.704;2023-12-20T04:23:51;3.90;;;2.10;;
52734;SDS011;38631;47.572;10.704;2023-12-20T04:26:16;3.67;;;2.45;;
52734;SDS011;38631;47.572;10.704;2023-12-20T04:28:42;3.08;;;1.70;;
52734;SDS011;38631;47.572;10.704;2023-12-20T04:31:07;1.67;;;1.10;;
52734;SDS011;38631;47.572;10.704;2023-12-20T04:33:33;1.35;;;1.10;;
52734;SDS011;38631;47.572;10.704;2023-12-20T04:35:58;1.52;;;0.88;;
52734;SDS011;38631;47.572;10.704;2023-12-20T04:38:25;2.17;;;0.70;;
52734;SDS011;38631;47.572;10.704;2023-12-20T04:40:50;1.05;;;0.85;;
52734;SDS011;38631;47.572;10.704;2023-12-20T04:43:15;2.13;;;0.80;;
52734;SDS011;38631;47.572;10.704;2023-12-20T04:45:41;1.25;;;0.70;;
52734;SDS011;38631;47.572;10.704;2023-12-20T04:48:06;1.48;;;0.90;;
52734;SDS011;38631;47.572;10.704;2023-12-20T04:50:31;1.08;;;0.70;;
52734;SDS011;38631;47.572;10.704;2023-12-20T04:52:58;1.33;;;0.80;;
52734;SDS011;38631;47.572;10.704;2023-12-20T04:55:23;1.58;;;0.90;;
52734;SDS011;38631;47.572;10.704;2023-12-20T04:57:49;1.33;;;0.73;;
52734;SDS011;38631;47.572;10.704;2023-12-20T05:00:14;1.50;;;0.88;;
52734;SDS011;38631;47.572;10.704;2023-12-20T05:02:40;2.58;;;1.00;;
52734;SDS011;38631;47.572;10.704;2023-12-20T05:05:05;1.33;;;0.70;;
52734;SDS011;38631;47.572;10.704;2023-12-20T05:07:31;1.30;;;0.73;;
52734;SDS011;38631;47.572;10.704;2023-12-20T05:09:56;2.70;;;1.00;;
52734;SDS011;38631;47.572;10.704;2023-12-20T05:12:22;1.23;;;0.80;;
52734;SDS011;38631;47.572;10.704;2023-12-20T05:14:47;1.92;;;0.90;;
52734;SDS011;38631;47.572;10.704;2023-12-20T05:17:12;1.58;;;0.82;;
52734;SDS011;38631;47.572;10.704;2023-12-20T05:19:38;1.38;;;0.60;;
52734;SDS011;38631;47.572;10.704;2023-12-20T05:22:03;0.80;;;0.60;;
52734;SDS011;38631;47.572;10.704;2023-12-20T05:24:29;1.23;;;0.63;;
52734;SDS011;38631;47.572;10.704;2023-12-20T05:26:54;0.73;;;0.40;;
52734;SDS011;38631;47.572;10.704;2023-12-20T05:29:19;0.85;;;0.50;;
52734;SDS011;38631;47.572;10.704;2023-12-20T05:31:45;1.65;;;0.98;;
52734;SDS011;38631;47.572;10.704;2023-12-20T05:34:10;1.33;;;0.88;;
52734;SDS011;38631;47.572;10.704;2023-12-20T05:36:36;1.20;;;0.60;;
52734;SDS011;38631;47.572;10.704;2023-12-20T05:39:02;2.40;;;0.70;;
52734;SDS011;38631;47.572;10.704;2023-12-20T05:41:32;1.20;;;0.70;;
52734;SDS011;38631;47.572;10.704;2023-12-20T05:43:58;0.85;;;0.68;;
52734;SDS011;38631;47.572;10.704;2023-12-20T05:46:24;1.02;;;0.50;;
52734;SDS011;38631;47.572;10.704;2023-12-20T05:48:49;2.17;;;0.63;;
52734;SDS011;38631;47.572;10.704;2023-12-20T05:51:16;0.80;;;0.60;;
52734;SDS011;38631;47.572;10.704;2023-12-20T05:53:42;2.58;;;1.42;;
52734;SDS011;38631;47.572;10.704;2023-12-20T05:56:07;1.52;;;0.60;;
52734;SDS011;38631;47.572;10.704;2023-12-20T05:58:33;1.50;;;0.80;;
52734;SDS011;38631;47.572;10.704;2023-12-20T06:00:58;1.85;;;0.68;;
52734;SDS011;38631;47.572;10.704;2023-12-20T06:03:24;1.65;;;0.70;;
52734;SDS011;38631;47.572;10.704;2023-12-20T06:05:49;1.88;;;0.60;;
52734;SDS011;38631;47.572;10.704;2023-12-20T06:08:14;2.47;;;0.75;;
52734;SDS011;38631;47.572;10.704;2023-12-20T06:10:40;1.13;;;0.68;;
52734;SDS011;38631;47.572;10.704;2023-12-20T06:13:05;1.95;;;0.70;;
52734;SDS011;38631;47.572;10.704;2023-12-20T06:15:31;1.00;;;0.60;;
52734;SDS011;38631;47.572;10.704;2023-12-20T06:17:57;0.60;;;0.45;;
52734;SDS011;38631;47.572;10.704;2023-12-20T06:20:22;1.80;;;0.90;;
52734;SDS011;38631;47.572;10.704;2023-12-20T06:22:48;1.27;;;0.60;;
52734;SDS011;38631;47.572;10.704;2023-12-20T06:25:13;2.53;;;0.63;;
52734;SDS011;38631;47.572;10.704;2023-12-20T06:27:39;0.88;;;0.47;;
52734;SDS011;38631;47.572;10.704;2023-12-20T06:30:06;0.98;;;0.57;;
52734;SDS011;38631;47.572;10.704;2023-12-20T06:32:32;1.50;;;0.93;;
52734;SDS011;38631;47.572;10.704;2023-12-20T06:34:57;1.20;;;0.95;;
52734;SDS011;38631;47.572;10.704;2023-12-20T06:37:23;2.25;;;1.67;;
52734;SDS011;38631;47.572;10.704;2023-12-20T06:39:48;1.55;;;1.13;;
52734;SDS011;38631;47.572;10.704;2023-12-20T06:42:13;1.17;;;0.60;;
52734;SDS011;38631;47.572;10.704;2023-12-20T06:44:39;1.58;;;0.30;;
52734;SDS011;38631;47.572;10.704;2023-12-20T06:47:06;0.50;;;0.40;;
52734;SDS011;38631;47.572;10.704;2023-12-20T06:49:32;0.77;;;0.40;;
52734;SDS011;38631;47.572;10.704;2023-12-20T06:51:57;0.50;;;0.30;;
52734;SDS011;38631;47.572;10.704;2023-12-20T06:54:23;0.55;;;0.40;;
52734;SDS011;38631;47.572;10.704;2023-12-20T06:56:48;0.70;;;0.40;;
52734;SDS011;38631;47.572;10.704;2023-12-20T06:59:13;0.70;;;0.32;;
52734;SDS011;38631;47.572;10.704;2023-12-20T07:01:39;1.13;;;0.50;;
52734;SDS011;38631;47.572;10.704;2023-12-20T07:04:04;1.25;;;0.82;;
52734;SDS011;38631;47.572;10.704;2023-12-20T07:06:29;1.40;;;0.80;;
52734;SDS011;38631;47.572;10.704;2023-12-20T07:08:55;3.50;;;2.05;;
52734;SDS011;38631;47.572;10.704;2023-12-20T07:11:21;3.38;;;1.65;;
52734;SDS011;38631;47.572;10.704;2023-12-20T07:13:46;2.55;;;0.98;;
52734;SDS011;38631;47.572;10.704;2023-12-20T07:16:11;0.52;;;0.30;;
52734;SDS011;38631;47.572;10.704;2023-12-20T07:18:38;1.58;;;0.30;;
52734;SDS011;38631;47.572;10.704;2023-12-20T07:21:03;0.70;;;0.50;;
52734;SDS011;38631;47.572;10.704;2023-12-20T07:23:29;0.80;;;0.73;;
52734;SDS011;38631;47.572;10.704;2023-12-20T07:25:54;1.33;;;0.70;;
52734;SDS011;38631;47.572;10.704;2023-12-20T07:28:20;1.30;;;0.50;;
52734;SDS011;38631;47.572;10.704;2023-12-20T07:30:45;1.45;;;0.57;;
52734;SDS011;38631;47.572;10.704;2023-12-20T07:33:11;0.85;;;0.50;;
52734;SDS011;38631;47.572;10.704;2023-12-20T07:35:37;1.10;;;0.50;;
52734;SDS011;38631;47.572;10.704;2023-12-20T07:38:02;5.95;;;0.75;;
52734;SDS011;38631;47.572;10.704;2023-12-20T07:40:28;2.47;;;1.27;;
52734;SDS011;38631;47.572;10.704;2023-12-20T07:42:53;2.72;;;1.27;;
52734;SDS011;38631;47.572;10.704;2023-12-20T07:45:19;1.27;;;0.65;;
52734;SDS011;38631;47.572;10.704;2023-12-20T07:47:44;2.88;;;0.57;;
52734;SDS011;38631;47.572;10.704;2023-12-20T07:50:11;1.20;;;0.50;;
52734;SDS011;38631;47.572;10.704;2023-12-20T07:52:36;0.70;;;0.40;;
52734;SDS011;38631;47.572;10.704;2023-12-20T07:55:02;0.57;;;0.43;;
52734;SDS011;38631;47.572;10.704;2023-12-20T07:57:30;3.15;;;1.40;;
52734;SDS011;38631;47.572;10.704;2023-12-20T07:59:56;4.00;;;1.52;;
52734;SDS011;38631;47.572;10.704;2023-12-20T08:02:21;1.70;;;1.50;;
52734;SDS011;38631;47.572;10.704;2023-12-20T08:04:46;1.90;;;1.50;;
52734;SDS011;38631;47.572;10.704;2023-12-20T08:07:12;1.25;;;1.00;;
52734;SDS011;38631;47.572;10.704;2023-12-20T08:09:37;1.20;;;0.90;;
52734;SDS011;38631;47.572;10.704;2023-12-20T08:12:03;1.10;;;0.77;;
52734;SDS011;38631;47.572;10.704;2023-12-20T08:14:28;1.33;;;0.90;;
52734;SDS011;38631;47.572;10.704;2023-12-20T08:16:53;0.80;;;0.40;;
52734;SDS011;38631;47.572;10.704;2023-12-20T08:19:19;0.40;;;0.30;;
52734;SDS011;38631;47.572;10.704;2023-12-20T08:21:44;0.82;;;0.60;;
52734;SDS011;38631;47.572;10.704;2023-12-20T08:24:10;0.93;;;0.40;;
52734;SDS011;38631;47.572;10.704;2023-12-20T08:26:35;1.23;;;0.60;;
52734;SDS011;38631;47.572;10.704;2023-12-20T08:29:00;1.02;;;0.50;;
52734;SDS011;38631;47.572;10.704;2023-12-20T08:31:26;0.82;;;0.50;;
52734;SDS011;38631;47.572;10.704;2023-12-20T08:33:51;2.33;;;1.20;;
52734;SDS011;38631;47.572;10.704;2023-12-20T08:36:18;4.00;;;1.90;;
52734;SDS011;38631;47.572;10.704;2023-12-20T08:38:46;3.88;;;1.67;;
52734;SDS011;38631;47.572;10.704;2023-12-20T08:41:11;3.60;;;2.17;;
52734;SDS011;38631;47.572;10.704;2023-12-20T08:43:37;3.15;;;1.80;;
52734;SDS011;38631;47.572;10.704;2023-12-20T08:46:05;1.92;;;1.20;;
52734;SDS011;38631;47.572;10.704;2023-12-20T08:48:30;1.15;;;0.77;;
52734;SDS011;38631;47.572;10.704;2023-12-20T08:50:57;1.20;;;0.52;;
52734;SDS011;38631;47.572;10.704;2023-12-20T08:53:22;0.70;;;0.40;;
52734;SDS011;38631;47.572;10.704;2023-12-20T08:55:48;0.70;;;0.50;;
52734;SDS011;38631;47.572;10.704;2023-12-20T08:58:13;1.65;;;0.85;;
52734;SDS011;38631;47.572;10.704;2023-12-20T09:00:39;1.92;;;1.08;;
52734;SDS011;38631;47.572;10.704;2023-12-20T09:03:05;1.73;;;1.15;;
52734;SDS011;38631;47.572;10.704;2023-12-20T09:05:30;2.72;;;1.75;;
52734;SDS011;38631;47.572;10.704;2023-12-20T09:07:56;1.40;;;1.17;;
52734;SDS011;38631;47.572;10.704;2023-12-20T09:10:21;0.95;;;0.88;;
52734;SDS011;38631;47.572;10.704;2023-12-20T09:12:50;2.80;;;1.20;;
52734;SDS011;38631;47.572;10.704;2023-12-20T09:15:19;1.17;;;0.80;;
52734;SDS011;38631;47.572;10.704;2023-12-20T09:17:45;1.73;;;0.70;;
52734;SDS011;38631;47.572;10.704;2023-12-20T09:20:10;3.42;;;1.95;;
52734;SDS011;38631;47.572;10.704;2023-12-20T09:22:35;6.65;;;3.80;;
52734;SDS011;38631;47.572;10.704;2023-12-20T09:25:03;7.50;;;4.30;;
52734;SDS011;38631;47.572;10.704;2023-12-20T09:27:31;5.05;;;3.08;;
52734;SDS011;38631;47.572;10.704;2023-12-20T09:29:57;4.57;;;2.50;;
52734;SDS011;38631;47.572;10.704;2023-12-20T09:32:22;4.32;;;2.40;;
52734;SDS011;38631;47.572;10.704;2023-12-20T09:34:47;2.65;;;1.30;;
52734;SDS011;38631;47.572;10.704;2023-12-20T09:37:13;2.20;;;0.70;;
52734;SDS011;38631;47.572;10.704;2023-12-20T09:39:38;2.42;;;1.10;;
52734;SDS011;38631;47.572;10.704;2023-12-20T09:42:04;2.67;;;1.40;;
52734;SDS011;38631;47.572;10.704;2023-12-20T09:44:31;6.47;;;3.90;;
52734;SDS011;38631;47.572;10.704;2023-12-20T09:46:58;5.57;;;3.17;;
52734;SDS011;38631;47.572;10.704;2023-12-20T09:49:23;5.05;;;2.55;;
52734;SDS011;38631;47.572;10.704;2023-12-20T09:51:53;1.92;;;1.20;;
52734;SDS011;38631;47.572;10.704;2023-12-20T09:54:19;0.50;;;0.30;;
52734;SDS011;38631;47.572;10.704;2023-12-20T09:56:46;0.65;;;0.30;;
52734;SDS011;38631;47.572;10.704;2023-12-20T09:59:20;0.56;;;0.30;;
52734;SDS011;38631;47.572;10.704;2023-12-20T10:01:46;1.90;;;0.80;;
52734;SDS011;38631;47.572;10.704;2023-12-20T10:04:12;1.23;;;0.60;;
52734;SDS011;38631;47.572;10.704;2023-12-20T10:06:41;0.93;;;0.57;;
52734;SDS011;38631;47.572;10.704;2023-12-20T10:09:08;1.90;;;1.20;;
52734;SDS011;38631;47.572;10.704;2023-12-20T10:11:35;1.00;;;0.60;;
52734;SDS011;38631;47.572;10.704;2023-12-20T10:14:02;1.15;;;0.60;;
52734;SDS011;38631;47.572;10.704;2023-12-20T10:16:28;1.40;;;0.60;;
52734;SDS011;38631;47.572;10.704;2023-12-20T10:18:54;2.08;;;0.60;;
52734;SDS011;38631;47.572;10.704;2023-12-20T10:21:21;1.73;;;0.68;;
52734;SDS011;38631;47.572;10.704;2023-12-20T10:23:48;1.10;;;0.50;;
52734;SDS011;38631;47.572;10.704;2023-12-20T10:26:21;0.95;;;0.40;;
52734;SDS011;38631;47.572;10.704;2023-12-20T10:28:55;0.32;;;0.22;;
52734;SDS011;38631;47.572;10.704;2023-12-20T10:31:28;0.30;;;0.20;;
52734;SDS011;38631;47.572;10.704;2023-12-20T10:34:00;1.42;;;0.50;;
52734;SDS011;38631;47.572;10.704;2023-12-20T10:36:28;2.03;;;0.90;;
52734;SDS011;38631;47.572;10.704;2023-12-20T10:38:56;1.27;;;0.80;;
52734;SDS011;38631;47.572;10.704;2023-12-20T10:41:31;1.27;;;0.50;;
52734;SDS011;38631;47.572;10.704;2023-12-20T10:44:01;0.38;;;0.30;;
52734;SDS011;38631;47.572;10.704;2023-12-20T10:46:28;0.63;;;0.40;;
52734;SDS011;38631;47.572;10.704;2023-12-20T10:48:56;1.00;;;0.40;;
52734;SDS011;38631;47.572;10.704;2023-12-20T10:51:22;1.55;;;0.40;;
52734;SDS011;38631;47.572;10.704;2023-12-20T10:53:51;0.30;;;0.20;;
52734;SDS011;38631;47.572;10.704;2023-12-20T10:56:18;0.38;;;0.30;;
52734;SDS011;38631;47.572;10.704;2023-12-20T10:58:47;0.88;;;0.40;;
52734;SDS011;38631;47.572;10.704;2023-12-20T11:01:14;0.57;;;0.28;;
52734;SDS011;38631;47.572;10.704;2023-12-20T11:03:48;1.35;;;0.50;;
52734;SDS011;38631;47.572;10.704;2023-12-20T11:06:40;0.82;;;0.43;;
52734;SDS011;38631;47.572;10.704;2023-12-20T11:09:31;1.80;;;0.20;;
52734;SDS011;38631;47.572;10.704;2023-12-20T11:12:16;1.88;;;1.00;;
52734;SDS011;38631;47.572;10.704;2023-12-20T11:14:52;0.50;;;0.30;;
52734;SDS011;38631;47.572;10.704;2023-12-20T11:17:20;0.52;;;0.30;;
52734;SDS011;38631;47.572;10.704;2023-12-20T11:22:18;0.93;;;0.30;;
52734;SDS011;38631;47.572;10.704;2023-12-20T11:24:46;0.45;;;0.30;;
52734;SDS011;38631;47.572;10.704;2023-12-20T11:27:13;4.30;;;0.40;;
52734;SDS011;38631;47.572;10.704;2023-12-20T11:29:38;0.20;;;0.20;;
52734;SDS011;38631;47.572;10.704;2023-12-20T11:32:49;0.35;;;0.20;;
52734;SDS011;38631;47.572;10.704;2023-12-20T11:34:50;0.15;;;0.10;;
52734;SDS011;38631;47.572;10.704;2023-12-20T11:37:18;0.95;;;0.22;;
52734;SDS011;38631;47.572;10.704;2023-12-20T11:39:44;0.45;;;0.20;;
52734;SDS011;38631;47.572;10.704;2023-12-20T11:42:19;0.30;;;0.20;;
52734;SDS011;38631;47.572;10.704;2023-12-20T11:44:45;1.23;;;0.50;;
52734;SDS011;38631;47.572;10.704;2023-12-20T11:47:11;0.80;;;0.50;;
52734;SDS011;38631;47.572;10.704;2023-12-20T11:49:38;1.02;;;0.57;;
52734;SDS011;38631;47.572;10.704;2023-12-20T11:52:04;0.50;;;0.32;;
52734;SDS011;38631;47.572;10.704;2023-12-20T11:54:30;1.13;;;0.35;;
52734;SDS011;38631;47.572;10.704;2023-12-20T11:56:55;0.30;;;0.30;;
52734;SDS011;38631;47.572;10.704;2023-12-20T11:59:21;1.08;;;0.63;;
52734;SDS011;38631;47.572;10.704;2023-12-20T12:01:50;0.95;;;0.50;;
52734;SDS011;38631;47.572;10.704;2023-12-20T12:04:16;0.40;;;0.20;;
52734;SDS011;38631;47.572;10.704;2023-12-20T12:06:42;0.85;;;0.35;;
52734;SDS011;38631;47.572;10.704;2023-12-20T12:09:10;1.00;;;0.40;;
52734;SDS011;38631;47.572;10.704;2023-12-20T12:11:35;0.93;;;0.47;;
52734;SDS011;38631;47.572;10.704;2023-12-20T12:14:01;0.47;;;0.20;;
52734;SDS011;38631;47.572;10.704;2023-12-20T12:16:27;0.30;;;0.20;;
52734;SDS011;38631;47.572;10.704;2023-12-20T12:18:58;0.32;;;0.10;;
52734;SDS011;38631;47.572;10.704;2023-12-20T12:21:28;0.15;;;0.10;;
52734;SDS011;38631;47.572;10.704;2023-12-20T12:23:53;0.40;;;0.30;;
52734;SDS011;38631;47.572;10.704;2023-12-20T12:26:19;0.70;;;0.20;;
52734;SDS011;38631;47.572;10.704;2023-12-20T12:28:45;0.68;;;0.38;;
52734;SDS011;38631;47.572;10.704;2023-12-20T12:31:14;0.95;;;0.63;;
52734;SDS011;38631;47.572;10.704;2023-12-20T12:36:07;1.23;;;0.75;;
52734;SDS011;38631;47.572;10.704;2023-12-20T12:38:32;1.30;;;0.80;;
52734;SDS011;38631;47.572;10.704;2023-12-20T12:40:59;1.45;;;0.70;;
52734;SDS011;38631;47.572;10.704;2023-12-20T12:43:25;0.68;;;0.40;;
52734;SDS011;38631;47.572;10.704;2023-12-20T12:45:51;0.40;;;0.30;;
52734;SDS011;38631;47.572;10.704;2023-12-20T12:48:16;0.30;;;0.20;;
52734;SDS011;38631;47.572;10.704;2023-12-20T12:50:41;0.93;;;0.40;;
52734;SDS011;38631;47.572;10.704;2023-12-20T12:53:07;1.85;;;0.40;;
52734;SDS011;38631;47.572;10.704;2023-12-20T12:55:32;1.10;;;0.50;;
52734;SDS011;38631;47.572;10.704;2023-12-20T12:57:58;0.65;;;0.25;;
52734;SDS011;38631;47.572;10.704;2023-12-20T13:00:24;1.80;;;0.88;;
52734;SDS011;38631;47.572;10.704;2023-12-20T13:02:51;1.33;;;0.70;;
52734;SDS011;38631;47.572;10.704;2023-12-20T13:05:16;2.15;;;0.70;;
52734;SDS011;38631;47.572;10.704;2023-12-20T13:07:42;3.42;;;1.15;;
52734;SDS011;38631;47.572;10.704;2023-12-20T13:10:10;1.85;;;0.70;;
52734;SDS011;38631;47.572;10.704;2023-12-20T13:12:35;2.65;;;0.77;;
52734;SDS011;38631;47.572;10.704;2023-12-20T13:15:04;1.05;;;0.60;;
52734;SDS011;38631;47.572;10.704;2023-12-20T13:17:29;1.90;;;0.80;;
52734;SDS011;38631;47.572;10.704;2023-12-20T13:19:55;1.92;;;0.80;;
52734;SDS011;38631;47.572;10.704;2023-12-20T13:22:20;1.83;;;0.50;;
52734;SDS011;38631;47.572;10.704;2023-12-20T13:24:45;1.33;;;0.52;;
52734;SDS011;38631;47.572;10.704;2023-12-20T13:27:11;0.90;;;0.30;;
52734;SDS011;38631;47.572;10.704;2023-12-20T13:29:36;0.70;;;0.20;;
52734;SDS011;38631;47.572;10.704;2023-12-20T13:32:02;1.75;;;0.40;;
52734;SDS011;38631;47.572;10.704;2023-12-20T13:34:28;0.40;;;0.20;;
52734;SDS011;38631;47.572;10.704;2023-12-20T13:36:54;1.52;;;0.40;;
52734;SDS011;38631;47.572;10.704;2023-12-20T13:39:24;1.65;;;0.40;;
52734;SDS011;38631;47.572;10.704;2023-12-20T13:42:50;0.40;;;0.32;;
52734;SDS011;38631;47.572;10.704;2023-12-20T13:45:16;0.55;;;0.30;;
52734;SDS011;38631;47.572;10.704;2023-12-20T13:47:41;0.65;;;0.30;;
52734;SDS011;38631;47.572;10.704;2023-12-20T13:50:07;0.40;;;0.30;;
52734;SDS011;38631;47.572;10.704;2023-12-20T13:52:33;0.45;;;0.20;;
52734;SDS011;38631;47.572;10.704;2023-12-20T13:54:58;0.32;;;0.22;;
52734;SDS011;38631;47.572;10.704;2023-12-20T13:57:24;0.55;;;0.30;;
52734;SDS011;38631;47.572;10.704;2023-12-20T13:59:49;0.57;;;0.30;;
52734;SDS011;38631;47.572;10.704;2023-12-20T14:02:15;0.40;;;0.30;;
52734;SDS011;38631;47.572;10.704;2023-12-20T14:04:41;0.45;;;0.28;;
52734;SDS011;38631;47.572;10.704;2023-12-20T14:07:07;0.57;;;0.40;;
52734;SDS011;38631;47.572;10.704;2023-12-20T14:09:34;1.02;;;0.40;;
52734;SDS011;38631;47.572;10.704;2023-12-20T14:12:00;3.88;;;0.50;;
52734;SDS011;38631;47.572;10.704;2023-12-20T14:14:26;0.73;;;0.45;;
52734;SDS011;38631;47.572;10.704;2023-12-20T14:16:52;0.43;;;0.32;;
52734;SDS011;38631;47.572;10.704;2023-12-20T14:19:17;0.82;;;0.45;;
52734;SDS011;38631;47.572;10.704;2023-12-20T14:21:43;0.93;;;0.35;;
52734;SDS011;38631;47.572;10.704;2023-12-20T14:24:10;0.70;;;0.40;;
52734;SDS011;38631;47.572;10.704;2023-12-20T14:26:39;0.80;;;0.50;;
52734;SDS011;38631;47.572;10.704;2023-12-20T14:29:05;0.47;;;0.35;;
52734;SDS011;38631;47.572;10.704;2023-12-20T14:31:32;0.75;;;0.40;;
52734;SDS011;38631;47.572;10.704;2023-12-20T14:33:58;3.45;;;1.33;;